sensor_id;sensor_type;location;lat;lon;timestamp;P1;durP1;ratioP1;P2;durP2;ratioP2
56770;SDS011;42641;59.794;17.616;2023-01-10T00:02:16;5.57;;;4.03;;
56770;SDS011;42641;59.794;17.616;2023-01-10T00:04:43;5.67;;;3.70;;
56770;SDS011;42641;59.794;17.616;2023-01-10T00:07:09;5.07;;;4.00;;
56770;SDS011;42641;59.794;17.616;2023-01-10T00:09:36;5.67;;;4.20;;
56770;SDS011;42641;59.794;17.616;2023-01-10T00:12:02;5.37;;;3.90;;
56770;SDS011;42641;59.794;17.616;2023-01-10T00:14:47;4.20;;;3.30;;
56770;SDS011;42641;59.794;17.616;2023-01-10T00:17:13;5.63;;;3.50;;
56770;SDS011;42641;59.794;17.616;2023-01-10T00:19:40;4.23;;;3.43;;
56770;SDS011;42641;59.794;17.616;2023-01-10T00:22:06;4.10;;;3.10;;
56770;SDS011;42641;59.794;17.616;2023-01-10T00:24:33;4.30;;;3.03;;
56770;SDS011;42641;59.794;17.616;2023-01-10T00:27:00;3.80;;;3.10;;
56770;SDS011;42641;59.794;17.616;2023-01-10T00:29:28;4.03;;;3.17;;
56770;SDS011;42641;59.794;17.616;2023-01-10T00:31:59;4.07;;;3.00;;
56770;SDS011;42641;59.794;17.616;2023-01-10T00:34:26;3.33;;;3.00;;
56770;SDS011;42641;59.794;17.616;2023-01-10T00:36:52;4.03;;;3.00;;
56770;SDS011;42641;59.794;17.616;2023-01-10T00:39:19;2.90;;;2.60;;
56770;SDS011;42641;59.794;17.616;2023-01-10T00:41:45;3.57;;;2.83;;
56770;SDS011;42641;59.794;17.616;2023-01-10T00:44:30;3.10;;;2.73;;
56770;SDS011;42641;59.794;17.616;2023-01-10T00:46:57;2.50;;;2.30;;
56770;SDS011;42641;59.794;17.616;2023-01-10T00:49:23;3.37;;;2.67;;
56770;SDS011;42641;59.794;17.616;2023-01-10T00:51:49;3.20;;;2.90;;
56770;SDS011;42641;59.794;17.616;2023-01-10T00:54:17;2.57;;;2.30;;
56770;SDS011;42641;59.794;17.616;2023-01-10T00:56:43;3.87;;;2.40;;
56770;SDS011;42641;59.794;17.616;2023-01-10T00:59:10;3.73;;;2.70;;
56770;SDS011;42641;59.794;17.616;2023-01-10T01:01:36;3.60;;;2.60;;
56770;SDS011;42641;59.794;17.616;2023-01-10T01:04:03;2.77;;;2.43;;
56770;SDS011;42641;59.794;17.616;2023-01-10T01:06:29;2.93;;;2.37;;
56770;SDS011;42641;59.794;17.616;2023-01-10T01:08:56;3.00;;;2.27;;
56770;SDS011;42641;59.794;17.616;2023-01-10T01:11:23;2.97;;;2.60;;
56770;SDS011;42641;59.794;17.616;2023-01-10T01:13:50;3.53;;;2.40;;
56770;SDS011;42641;59.794;17.616;2023-01-10T01:16:17;2.93;;;2.20;;
56770;SDS011;42641;59.794;17.616;2023-01-10T01:18:43;2.67;;;2.27;;
56770;SDS011;42641;59.794;17.616;2023-01-10T01:21:09;2.50;;;2.27;;
56770;SDS011;42641;59.794;17.616;2023-01-10T01:23:36;2.60;;;2.40;;
56770;SDS011;42641;59.794;17.616;2023-01-10T01:26:02;3.70;;;2.50;;
56770;SDS011;42641;59.794;17.616;2023-01-10T01:28:31;2.63;;;2.17;;
56770;SDS011;42641;59.794;17.616;2023-01-10T01:30:57;2.50;;;2.20;;
56770;SDS011;42641;59.794;17.616;2023-01-10T01:33:23;4.67;;;2.60;;
56770;SDS011;42641;59.794;17.616;2023-01-10T01:35:50;2.53;;;2.30;;
56770;SDS011;42641;59.794;17.616;2023-01-10T01:38:16;2.93;;;2.40;;
56770;SDS011;42641;59.794;17.616;2023-01-10T01:40:43;2.63;;;2.43;;
56770;SDS011;42641;59.794;17.616;2023-01-10T01:43:26;3.57;;;2.70;;
56770;SDS011;42641;59.794;17.616;2023-01-10T01:45:54;6.13;;;2.83;;
56770;SDS011;42641;59.794;17.616;2023-01-10T01:48:35;3.53;;;2.57;;
56770;SDS011;42641;59.794;17.616;2023-01-10T01:51:15;2.57;;;2.20;;
56770;SDS011;42641;59.794;17.616;2023-01-10T01:53:46;2.57;;;1.97;;
56770;SDS011;42641;59.794;17.616;2023-01-10T01:58:56;6.57;;;2.60;;
56770;SDS011;42641;59.794;17.616;2023-01-10T02:01:26;2.40;;;2.13;;
56770;SDS011;42641;59.794;17.616;2023-01-10T02:03:56;2.37;;;2.13;;
56770;SDS011;42641;59.794;17.616;2023-01-10T02:06:31;3.53;;;2.43;;
56770;SDS011;42641;59.794;17.616;2023-01-10T02:09:08;2.40;;;2.20;;
56770;SDS011;42641;59.794;17.616;2023-01-10T02:11:47;2.90;;;2.10;;
56770;SDS011;42641;59.794;17.616;2023-01-10T02:14:14;2.67;;;2.47;;
56770;SDS011;42641;59.794;17.616;2023-01-10T02:16:40;2.37;;;2.17;;
56770;SDS011;42641;59.794;17.616;2023-01-10T02:19:11;2.77;;;2.30;;
56770;SDS011;42641;59.794;17.616;2023-01-10T02:33:15;2.13;;;1.93;;
56770;SDS011;42641;59.794;17.616;2023-01-10T02:36:02;2.13;;;1.90;;
56770;SDS011;42641;59.794;17.616;2023-01-10T02:38:57;2.47;;;2.10;;
56770;SDS011;42641;59.794;17.616;2023-01-10T02:41:40;2.67;;;1.93;;
56770;SDS011;42641;59.794;17.616;2023-01-10T02:44:39;2.73;;;2.00;;
56770;SDS011;42641;59.794;17.616;2023-01-10T02:47:12;2.63;;;2.17;;
56770;SDS011;42641;59.794;17.616;2023-01-10T02:49:46;2.83;;;2.10;;
56770;SDS011;42641;59.794;17.616;2023-01-10T02:52:15;2.80;;;2.13;;
56770;SDS011;42641;59.794;17.616;2023-01-10T02:54:48;2.30;;;2.07;;
56770;SDS011;42641;59.794;17.616;2023-01-10T03:00:24;2.60;;;2.03;;
56770;SDS011;42641;59.794;17.616;2023-01-10T03:02:58;2.20;;;2.00;;
56770;SDS011;42641;59.794;17.616;2023-01-10T03:05:50;2.37;;;2.00;;
56770;SDS011;42641;59.794;17.616;2023-01-10T03:11:03;3.10;;;2.13;;
56770;SDS011;42641;59.794;17.616;2023-01-10T03:16:17;2.57;;;2.20;;
56770;SDS011;42641;59.794;17.616;2023-01-10T03:18:50;2.27;;;2.07;;
56770;SDS011;42641;59.794;17.616;2023-01-10T03:21:23;2.97;;;2.37;;
56770;SDS011;42641;59.794;17.616;2023-01-10T03:23:51;2.33;;;2.13;;
56770;SDS011;42641;59.794;17.616;2023-01-10T03:26:25;2.17;;;1.93;;
56770;SDS011;42641;59.794;17.616;2023-01-10T03:29:00;2.50;;;2.30;;
56770;SDS011;42641;59.794;17.616;2023-01-10T03:31:34;3.03;;;2.37;;
56770;SDS011;42641;59.794;17.616;2023-01-10T03:34:11;3.33;;;2.20;;
56770;SDS011;42641;59.794;17.616;2023-01-10T03:37:13;2.53;;;2.33;;
56770;SDS011;42641;59.794;17.616;2023-01-10T03:39:40;2.33;;;2.00;;
56770;SDS011;42641;59.794;17.616;2023-01-10T03:42:28;2.70;;;2.47;;
56770;SDS011;42641;59.794;17.616;2023-01-10T03:45:16;2.40;;;2.17;;
56770;SDS011;42641;59.794;17.616;2023-01-10T03:47:49;2.40;;;2.20;;
56770;SDS011;42641;59.794;17.616;2023-01-10T03:50:22;2.50;;;2.10;;
56770;SDS011;42641;59.794;17.616;2023-01-10T03:52:50;2.27;;;2.07;;
56770;SDS011;42641;59.794;17.616;2023-01-10T03:55:19;2.50;;;2.30;;
56770;SDS011;42641;59.794;17.616;2023-01-10T03:57:47;2.57;;;2.37;;
56770;SDS011;42641;59.794;17.616;2023-01-10T04:00:14;2.27;;;2.07;;
56770;SDS011;42641;59.794;17.616;2023-01-10T04:02:41;2.30;;;2.10;;
56770;SDS011;42641;59.794;17.616;2023-01-10T04:05:08;2.40;;;2.10;;
56770;SDS011;42641;59.794;17.616;2023-01-10T04:07:35;2.27;;;2.03;;
56770;SDS011;42641;59.794;17.616;2023-01-10T04:10:02;2.20;;;2.00;;
56770;SDS011;42641;59.794;17.616;2023-01-10T04:12:30;2.60;;;2.40;;
56770;SDS011;42641;59.794;17.616;2023-01-10T04:14:56;2.97;;;2.37;;
56770;SDS011;42641;59.794;17.616;2023-01-10T04:17:23;2.53;;;2.30;;
56770;SDS011;42641;59.794;17.616;2023-01-10T04:19:49;2.30;;;2.10;;
56770;SDS011;42641;59.794;17.616;2023-01-10T04:22:15;2.60;;;2.40;;
56770;SDS011;42641;59.794;17.616;2023-01-10T04:24:42;2.67;;;2.17;;
56770;SDS011;42641;59.794;17.616;2023-01-10T04:27:09;2.43;;;2.20;;
56770;SDS011;42641;59.794;17.616;2023-01-10T04:29:35;2.43;;;2.23;;
56770;SDS011;42641;59.794;17.616;2023-01-10T04:32:01;2.73;;;2.30;;
56770;SDS011;42641;59.794;17.616;2023-01-10T04:34:28;2.50;;;2.30;;
56770;SDS011;42641;59.794;17.616;2023-01-10T04:36:54;2.80;;;2.50;;
56770;SDS011;42641;59.794;17.616;2023-01-10T04:39:20;2.57;;;2.27;;
56770;SDS011;42641;59.794;17.616;2023-01-10T04:41:47;2.50;;;2.13;;
56770;SDS011;42641;59.794;17.616;2023-01-10T04:44:13;2.77;;;2.17;;
56770;SDS011;42641;59.794;17.616;2023-01-10T04:46:39;2.40;;;2.20;;
56770;SDS011;42641;59.794;17.616;2023-01-10T04:49:06;2.27;;;2.07;;
56770;SDS011;42641;59.794;17.616;2023-01-10T04:51:33;3.23;;;2.30;;
56770;SDS011;42641;59.794;17.616;2023-01-10T04:54:00;2.33;;;2.03;;
56770;SDS011;42641;59.794;17.616;2023-01-10T04:56:26;2.00;;;1.87;;
56770;SDS011;42641;59.794;17.616;2023-01-10T04:58:53;1.93;;;1.83;;
56770;SDS011;42641;59.794;17.616;2023-01-10T05:01:20;2.13;;;1.90;;
56770;SDS011;42641;59.794;17.616;2023-01-10T05:03:48;3.27;;;2.40;;
56770;SDS011;42641;59.794;17.616;2023-01-10T05:06:16;2.27;;;2.07;;
56770;SDS011;42641;59.794;17.616;2023-01-10T05:08:43;2.27;;;1.90;;
56770;SDS011;42641;59.794;17.616;2023-01-10T05:11:10;2.80;;;1.90;;
56770;SDS011;42641;59.794;17.616;2023-01-10T05:13:36;2.27;;;2.03;;
56770;SDS011;42641;59.794;17.616;2023-01-10T05:16:03;2.23;;;2.00;;
56770;SDS011;42641;59.794;17.616;2023-01-10T05:18:30;1.93;;;1.77;;
56770;SDS011;42641;59.794;17.616;2023-01-10T05:21:00;2.67;;;1.87;;
56770;SDS011;42641;59.794;17.616;2023-01-10T05:23:28;2.10;;;1.90;;
56770;SDS011;42641;59.794;17.616;2023-01-10T05:25:55;1.73;;;1.63;;
56770;SDS011;42641;59.794;17.616;2023-01-10T05:28:21;1.90;;;1.80;;
56770;SDS011;42641;59.794;17.616;2023-01-10T05:30:48;1.83;;;1.70;;
56770;SDS011;42641;59.794;17.616;2023-01-10T05:33:15;2.20;;;1.80;;
56770;SDS011;42641;59.794;17.616;2023-01-10T05:35:41;2.67;;;1.70;;
56770;SDS011;42641;59.794;17.616;2023-01-10T05:38:07;1.97;;;1.60;;
56770;SDS011;42641;59.794;17.616;2023-01-10T05:40:34;1.60;;;1.50;;
56770;SDS011;42641;59.794;17.616;2023-01-10T05:43:00;1.97;;;1.87;;
56770;SDS011;42641;59.794;17.616;2023-01-10T05:45:26;1.93;;;1.70;;
56770;SDS011;42641;59.794;17.616;2023-01-10T05:47:53;1.70;;;1.60;;
56770;SDS011;42641;59.794;17.616;2023-01-10T05:50:19;2.10;;;1.80;;
56770;SDS011;42641;59.794;17.616;2023-01-10T05:52:45;1.97;;;1.70;;
56770;SDS011;42641;59.794;17.616;2023-01-10T05:55:12;2.23;;;1.73;;
56770;SDS011;42641;59.794;17.616;2023-01-10T05:57:38;2.00;;;1.80;;
56770;SDS011;42641;59.794;17.616;2023-01-10T06:00:04;1.77;;;1.50;;
56770;SDS011;42641;59.794;17.616;2023-01-10T06:02:37;2.17;;;1.80;;
56770;SDS011;42641;59.794;17.616;2023-01-10T06:05:03;2.60;;;2.00;;
56770;SDS011;42641;59.794;17.616;2023-01-10T06:07:30;2.53;;;2.03;;
56770;SDS011;42641;59.794;17.616;2023-01-10T06:09:56;3.00;;;1.97;;
56770;SDS011;42641;59.794;17.616;2023-01-10T06:12:23;2.37;;;2.00;;
56770;SDS011;42641;59.794;17.616;2023-01-10T06:14:49;2.13;;;1.67;;
56770;SDS011;42641;59.794;17.616;2023-01-10T06:17:16;2.80;;;2.10;;
56770;SDS011;42641;59.794;17.616;2023-01-10T06:19:42;2.70;;;2.20;;
56770;SDS011;42641;59.794;17.616;2023-01-10T06:22:09;2.27;;;1.93;;
56770;SDS011;42641;59.794;17.616;2023-01-10T06:24:35;2.70;;;2.00;;
56770;SDS011;42641;59.794;17.616;2023-01-10T06:27:01;3.07;;;2.13;;
56770;SDS011;42641;59.794;17.616;2023-01-10T06:29:28;3.63;;;2.20;;
56770;SDS011;42641;59.794;17.616;2023-01-10T06:31:54;2.10;;;1.90;;
56770;SDS011;42641;59.794;17.616;2023-01-10T06:34:21;4.07;;;2.20;;
56770;SDS011;42641;59.794;17.616;2023-01-10T06:36:47;2.23;;;2.03;;
56770;SDS011;42641;59.794;17.616;2023-01-10T06:39:14;2.30;;;2.00;;
56770;SDS011;42641;59.794;17.616;2023-01-10T06:41:40;2.60;;;2.03;;
56770;SDS011;42641;59.794;17.616;2023-01-10T06:44:07;3.10;;;2.23;;
56770;SDS011;42641;59.794;17.616;2023-01-10T06:46:33;2.87;;;2.40;;
56770;SDS011;42641;59.794;17.616;2023-01-10T06:48:59;2.67;;;2.40;;
56770;SDS011;42641;59.794;17.616;2023-01-10T06:51:26;3.50;;;2.60;;
56770;SDS011;42641;59.794;17.616;2023-01-10T06:53:52;3.17;;;2.80;;
56770;SDS011;42641;59.794;17.616;2023-01-10T06:56:18;5.67;;;2.50;;
56770;SDS011;42641;59.794;17.616;2023-01-10T06:58:47;2.97;;;2.60;;
56770;SDS011;42641;59.794;17.616;2023-01-10T07:01:15;3.37;;;2.67;;
56770;SDS011;42641;59.794;17.616;2023-01-10T07:03:44;3.63;;;2.53;;
56770;SDS011;42641;59.794;17.616;2023-01-10T07:06:12;4.43;;;2.80;;
56770;SDS011;42641;59.794;17.616;2023-01-10T07:08:42;3.17;;;2.30;;
56770;SDS011;42641;59.794;17.616;2023-01-10T07:11:11;4.60;;;3.00;;
56770;SDS011;42641;59.794;17.616;2023-01-10T07:13:38;3.77;;;2.83;;
56770;SDS011;42641;59.794;17.616;2023-01-10T07:16:09;3.27;;;2.40;;
56770;SDS011;42641;59.794;17.616;2023-01-10T07:18:38;3.40;;;2.43;;
56770;SDS011;42641;59.794;17.616;2023-01-10T07:21:05;3.57;;;2.60;;
56770;SDS011;42641;59.794;17.616;2023-01-10T07:23:33;4.07;;;2.73;;
56770;SDS011;42641;59.794;17.616;2023-01-10T07:26:03;5.07;;;2.57;;
56770;SDS011;42641;59.794;17.616;2023-01-10T07:28:31;9.77;;;3.80;;
56770;SDS011;42641;59.794;17.616;2023-01-10T07:30:59;4.23;;;2.83;;
56770;SDS011;42641;59.794;17.616;2023-01-10T07:33:27;7.53;;;3.43;;
56770;SDS011;42641;59.794;17.616;2023-01-10T07:35:54;6.57;;;2.87;;
56770;SDS011;42641;59.794;17.616;2023-01-10T07:38:20;7.10;;;2.80;;
56770;SDS011;42641;59.794;17.616;2023-01-10T07:40:47;5.00;;;2.90;;
56770;SDS011;42641;59.794;17.616;2023-01-10T07:43:13;3.87;;;2.60;;
56770;SDS011;42641;59.794;17.616;2023-01-10T07:45:40;5.00;;;2.67;;
56770;SDS011;42641;59.794;17.616;2023-01-10T07:48:07;5.80;;;2.70;;
56770;SDS011;42641;59.794;17.616;2023-01-10T07:50:34;13.80;;;3.70;;
56770;SDS011;42641;59.794;17.616;2023-01-10T07:53:02;31.67;;;4.60;;
56770;SDS011;42641;59.794;17.616;2023-01-10T07:55:29;19.60;;;3.97;;
56770;SDS011;42641;59.794;17.616;2023-01-10T07:57:59;25.83;;;4.23;;
56770;SDS011;42641;59.794;17.616;2023-01-10T08:00:25;54.93;;;5.73;;
56770;SDS011;42641;59.794;17.616;2023-01-10T08:02:52;17.90;;;3.50;;
56770;SDS011;42641;59.794;17.616;2023-01-10T08:05:20;52.93;;;6.40;;
56770;SDS011;42641;59.794;17.616;2023-01-10T08:07:47;105.87;;;9.37;;
56770;SDS011;42641;59.794;17.616;2023-01-10T08:10:14;62.50;;;7.20;;
56770;SDS011;42641;59.794;17.616;2023-01-10T08:12:40;118.97;;;9.80;;
56770;SDS011;42641;59.794;17.616;2023-01-10T08:15:07;137.17;;;11.90;;
56770;SDS011;42641;59.794;17.616;2023-01-10T08:17:35;40.87;;;5.90;;
56770;SDS011;42641;59.794;17.616;2023-01-10T08:20:01;206.87;;;16.80;;
56770;SDS011;42641;59.794;17.616;2023-01-10T08:22:28;151.70;;;11.47;;
56770;SDS011;42641;59.794;17.616;2023-01-10T08:24:55;134.43;;;10.63;;
56770;SDS011;42641;59.794;17.616;2023-01-10T08:27:21;117.10;;;10.87;;
56770;SDS011;42641;59.794;17.616;2023-01-10T08:29:48;212.37;;;15.53;;
56770;SDS011;42641;59.794;17.616;2023-01-10T08:32:14;215.70;;;14.93;;
56770;SDS011;42641;59.794;17.616;2023-01-10T08:34:40;68.83;;;7.60;;
56770;SDS011;42641;59.794;17.616;2023-01-10T08:37:09;40.57;;;6.93;;
56770;SDS011;42641;59.794;17.616;2023-01-10T08:39:39;23.50;;;5.73;;
56770;SDS011;42641;59.794;17.616;2023-01-10T08:42:05;78.00;;;8.83;;
56770;SDS011;42641;59.794;17.616;2023-01-10T08:44:32;26.67;;;6.10;;
56770;SDS011;42641;59.794;17.616;2023-01-10T08:46:58;22.40;;;5.50;;
56770;SDS011;42641;59.794;17.616;2023-01-10T08:49:25;28.90;;;6.23;;
56770;SDS011;42641;59.794;17.616;2023-01-10T08:51:51;18.40;;;5.17;;
56770;SDS011;42641;59.794;17.616;2023-01-10T08:54:17;6.33;;;3.93;;
56770;SDS011;42641;59.794;17.616;2023-01-10T08:56:44;10.60;;;4.50;;
56770;SDS011;42641;59.794;17.616;2023-01-10T08:59:10;8.27;;;3.93;;
56770;SDS011;42641;59.794;17.616;2023-01-10T09:01:36;6.47;;;3.90;;
56770;SDS011;42641;59.794;17.616;2023-01-10T09:04:03;12.50;;;4.80;;
56770;SDS011;42641;59.794;17.616;2023-01-10T09:06:30;8.07;;;3.77;;
56770;SDS011;42641;59.794;17.616;2023-01-10T09:08:56;5.90;;;4.00;;
56770;SDS011;42641;59.794;17.616;2023-01-10T09:11:22;6.43;;;3.93;;
56770;SDS011;42641;59.794;17.616;2023-01-10T09:13:49;7.90;;;4.00;;
56770;SDS011;42641;59.794;17.616;2023-01-10T09:16:16;9.30;;;4.43;;
56770;SDS011;42641;59.794;17.616;2023-01-10T09:18:43;19.10;;;4.93;;
56770;SDS011;42641;59.794;17.616;2023-01-10T09:21:09;15.50;;;4.50;;
56770;SDS011;42641;59.794;17.616;2023-01-10T09:23:35;7.47;;;4.30;;
56770;SDS011;42641;59.794;17.616;2023-01-10T09:26:04;9.03;;;4.10;;
56770;SDS011;42641;59.794;17.616;2023-01-10T09:28:31;21.10;;;6.07;;
56770;SDS011;42641;59.794;17.616;2023-01-10T09:30:57;19.10;;;4.73;;
56770;SDS011;42641;59.794;17.616;2023-01-10T09:33:25;18.30;;;5.40;;
56770;SDS011;42641;59.794;17.616;2023-01-10T09:35:52;17.97;;;5.10;;
56770;SDS011;42641;59.794;17.616;2023-01-10T09:38:22;13.50;;;5.17;;
56770;SDS011;42641;59.794;17.616;2023-01-10T09:40:53;21.90;;;6.80;;
56770;SDS011;42641;59.794;17.616;2023-01-10T09:46:14;8.43;;;4.60;;
56770;SDS011;42641;59.794;17.616;2023-01-10T09:49:38;8.17;;;4.03;;
56770;SDS011;42641;59.794;17.616;2023-01-10T09:52:01;6.63;;;3.97;;
56770;SDS011;42641;59.794;17.616;2023-01-10T09:54:38;6.37;;;3.90;;
56770;SDS011;42641;59.794;17.616;2023-01-10T09:57:09;10.40;;;4.70;;
56770;SDS011;42641;59.794;17.616;2023-01-10T09:59:41;7.33;;;3.83;;
56770;SDS011;42641;59.794;17.616;2023-01-10T10:02:25;5.37;;;3.70;;
56770;SDS011;42641;59.794;17.616;2023-01-10T10:05:17;7.40;;;4.27;;
56770;SDS011;42641;59.794;17.616;2023-01-10T10:07:55;8.00;;;4.10;;
56770;SDS011;42641;59.794;17.616;2023-01-10T10:10:25;6.27;;;4.27;;
56770;SDS011;42641;59.794;17.616;2023-01-10T10:27:28;13.57;;;5.07;;
56770;SDS011;42641;59.794;17.616;2023-01-10T10:35:44;14.03;;;5.07;;
56770;SDS011;42641;59.794;17.616;2023-01-10T10:38:25;13.90;;;4.77;;
56770;SDS011;42641;59.794;17.616;2023-01-10T10:40:55;9.70;;;4.70;;
56770;SDS011;42641;59.794;17.616;2023-01-10T10:43:25;11.27;;;4.90;;
56770;SDS011;42641;59.794;17.616;2023-01-10T10:46:05;11.23;;;5.20;;
56770;SDS011;42641;59.794;17.616;2023-01-10T10:48:42;26.53;;;6.17;;
56770;SDS011;42641;59.794;17.616;2023-01-10T10:51:51;15.53;;;5.80;;
56770;SDS011;42641;59.794;17.616;2023-01-10T10:54:15;10.30;;;5.17;;
56770;SDS011;42641;59.794;17.616;2023-01-10T10:56:41;12.47;;;5.67;;
56770;SDS011;42641;59.794;17.616;2023-01-10T10:59:09;13.23;;;5.40;;
56770;SDS011;42641;59.794;17.616;2023-01-10T11:01:46;14.33;;;5.83;;
56770;SDS011;42641;59.794;17.616;2023-01-10T11:04:16;12.73;;;5.47;;
56770;SDS011;42641;59.794;17.616;2023-01-10T11:06:48;27.63;;;6.03;;
56770;SDS011;42641;59.794;17.616;2023-01-10T11:09:16;13.73;;;6.13;;
56770;SDS011;42641;59.794;17.616;2023-01-10T11:12:11;10.83;;;5.47;;
56770;SDS011;42641;59.794;17.616;2023-01-10T11:14:40;18.30;;;6.13;;
56770;SDS011;42641;59.794;17.616;2023-01-10T11:19:54;23.43;;;6.60;;
56770;SDS011;42641;59.794;17.616;2023-01-10T11:22:26;29.37;;;6.57;;
56770;SDS011;42641;59.794;17.616;2023-01-10T11:24:58;17.87;;;6.10;;
56770;SDS011;42641;59.794;17.616;2023-01-10T11:27:27;23.73;;;6.07;;
56770;SDS011;42641;59.794;17.616;2023-01-10T11:29:58;24.77;;;5.20;;
56770;SDS011;42641;59.794;17.616;2023-01-10T11:32:36;16.83;;;4.93;;
56770;SDS011;42641;59.794;17.616;2023-01-10T11:35:21;33.23;;;8.27;;
56770;SDS011;42641;59.794;17.616;2023-01-10T11:48:33;16.47;;;6.00;;
56770;SDS011;42641;59.794;17.616;2023-01-10T11:51:25;16.30;;;5.87;;
56770;SDS011;42641;59.794;17.616;2023-01-10T11:53:57;16.33;;;6.20;;
56770;SDS011;42641;59.794;17.616;2023-01-10T11:56:27;12.47;;;6.23;;
56770;SDS011;42641;59.794;17.616;2023-01-10T11:58:57;23.77;;;8.13;;
56770;SDS011;42641;59.794;17.616;2023-01-10T12:01:37;22.33;;;7.13;;
56770;SDS011;42641;59.794;17.616;2023-01-10T12:04:13;24.10;;;6.40;;
56770;SDS011;42641;59.794;17.616;2023-01-10T12:06:45;13.53;;;6.40;;
56770;SDS011;42641;59.794;17.616;2023-01-10T12:09:30;23.87;;;6.97;;
56770;SDS011;42641;59.794;17.616;2023-01-10T12:12:14;16.87;;;5.87;;
56770;SDS011;42641;59.794;17.616;2023-01-10T12:14:52;11.20;;;5.70;;
56770;SDS011;42641;59.794;17.616;2023-01-10T12:17:27;11.50;;;5.63;;
56770;SDS011;42641;59.794;17.616;2023-01-10T12:20:03;15.27;;;6.50;;
56770;SDS011;42641;59.794;17.616;2023-01-10T12:22:38;12.23;;;5.97;;
56770;SDS011;42641;59.794;17.616;2023-01-10T12:25:17;20.50;;;7.40;;
56770;SDS011;42641;59.794;17.616;2023-01-10T12:27:46;20.50;;;7.17;;
56770;SDS011;42641;59.794;17.616;2023-01-10T12:30:17;18.63;;;6.90;;
56770;SDS011;42641;59.794;17.616;2023-01-10T12:32:51;16.20;;;7.70;;
56770;SDS011;42641;59.794;17.616;2023-01-10T12:35:26;13.70;;;6.53;;
56770;SDS011;42641;59.794;17.616;2023-01-10T12:40:51;12.07;;;6.73;;
56770;SDS011;42641;59.794;17.616;2023-01-10T12:43:32;12.00;;;6.43;;
56770;SDS011;42641;59.794;17.616;2023-01-10T12:46:23;16.80;;;7.83;;
56770;SDS011;42641;59.794;17.616;2023-01-10T12:48:56;26.93;;;9.30;;
56770;SDS011;42641;59.794;17.616;2023-01-10T12:51:48;15.47;;;7.83;;
56770;SDS011;42641;59.794;17.616;2023-01-10T12:54:22;21.30;;;8.57;;
56770;SDS011;42641;59.794;17.616;2023-01-10T12:56:52;17.20;;;7.60;;
56770;SDS011;42641;59.794;17.616;2023-01-10T12:59:38;24.43;;;9.47;;
56770;SDS011;42641;59.794;17.616;2023-01-10T13:02:10;13.57;;;6.87;;
56770;SDS011;42641;59.794;17.616;2023-01-10T13:04:41;17.13;;;7.50;;
56770;SDS011;42641;59.794;17.616;2023-01-10T13:07:13;54.83;;;9.57;;
56770;SDS011;42641;59.794;17.616;2023-01-10T13:09:41;21.97;;;7.50;;
56770;SDS011;42641;59.794;17.616;2023-01-10T13:12:29;19.77;;;8.13;;
56770;SDS011;42641;59.794;17.616;2023-01-10T13:15:16;27.23;;;7.90;;
56770;SDS011;42641;59.794;17.616;2023-01-10T13:18:12;20.43;;;7.77;;
56770;SDS011;42641;59.794;17.616;2023-01-10T13:20:48;24.37;;;7.00;;
56770;SDS011;42641;59.794;17.616;2023-01-10T13:23:27;20.23;;;6.97;;
56770;SDS011;42641;59.794;17.616;2023-01-10T13:26:15;16.40;;;7.77;;
56770;SDS011;42641;59.794;17.616;2023-01-10T13:28:55;50.00;;;10.57;;
56770;SDS011;42641;59.794;17.616;2023-01-10T13:31:28;11.27;;;6.07;;
56770;SDS011;42641;59.794;17.616;2023-01-10T13:36:29;19.13;;;7.47;;
56770;SDS011;42641;59.794;17.616;2023-01-10T13:39:04;20.80;;;7.30;;
56770;SDS011;42641;59.794;17.616;2023-01-10T13:45:15;36.27;;;7.60;;
56770;SDS011;42641;59.794;17.616;2023-01-10T13:52:48;13.33;;;6.90;;
56770;SDS011;42641;59.794;17.616;2023-01-10T13:55:21;37.17;;;8.20;;
56770;SDS011;42641;59.794;17.616;2023-01-10T14:01:26;13.53;;;6.77;;
56770;SDS011;42641;59.794;17.616;2023-01-10T14:04:17;20.87;;;7.33;;
56770;SDS011;42641;59.794;17.616;2023-01-10T14:09:46;17.03;;;7.77;;
56770;SDS011;42641;59.794;17.616;2023-01-10T14:12:19;15.73;;;7.20;;
56770;SDS011;42641;59.794;17.616;2023-01-10T14:14:57;10.87;;;5.83;;
56770;SDS011;42641;59.794;17.616;2023-01-10T14:17:30;13.27;;;6.23;;
56770;SDS011;42641;59.794;17.616;2023-01-10T14:20:13;7.60;;;4.83;;
56770;SDS011;42641;59.794;17.616;2023-01-10T14:22:45;7.37;;;5.07;;
56770;SDS011;42641;59.794;17.616;2023-01-10T14:25:24;12.73;;;5.33;;
56770;SDS011;42641;59.794;17.616;2023-01-10T14:27:52;7.83;;;5.10;;
56770;SDS011;42641;59.794;17.616;2023-01-10T14:30:21;8.60;;;5.80;;
56770;SDS011;42641;59.794;17.616;2023-01-10T14:32:51;8.50;;;5.13;;
56770;SDS011;42641;59.794;17.616;2023-01-10T14:35:20;10.20;;;5.60;;
56770;SDS011;42641;59.794;17.616;2023-01-10T14:37:53;9.37;;;5.50;;
56770;SDS011;42641;59.794;17.616;2023-01-10T14:43:12;7.47;;;5.03;;
56770;SDS011;42641;59.794;17.616;2023-01-10T14:45:43;9.90;;;5.00;;
56770;SDS011;42641;59.794;17.616;2023-01-10T14:48:31;6.60;;;4.70;;
56770;SDS011;42641;59.794;17.616;2023-01-10T14:53:59;7.60;;;5.00;;
56770;SDS011;42641;59.794;17.616;2023-01-10T14:56:37;8.47;;;5.67;;
56770;SDS011;42641;59.794;17.616;2023-01-10T14:59:14;8.00;;;5.03;;
56770;SDS011;42641;59.794;17.616;2023-01-10T15:02:20;7.63;;;4.63;;
56770;SDS011;42641;59.794;17.616;2023-01-10T15:04:53;6.03;;;4.63;;
56770;SDS011;42641;59.794;17.616;2023-01-10T15:07:26;6.77;;;4.07;;
56770;SDS011;42641;59.794;17.616;2023-01-10T15:09:54;7.83;;;4.53;;
56770;SDS011;42641;59.794;17.616;2023-01-10T15:12:24;8.63;;;4.77;;
56770;SDS011;42641;59.794;17.616;2023-01-10T15:14:58;7.03;;;4.50;;
56770;SDS011;42641;59.794;17.616;2023-01-10T15:17:27;8.80;;;4.30;;
56770;SDS011;42641;59.794;17.616;2023-01-10T15:19:55;6.47;;;4.07;;
56770;SDS011;42641;59.794;17.616;2023-01-10T15:27:53;3.90;;;3.23;;
56770;SDS011;42641;59.794;17.616;2023-01-10T15:30:22;5.57;;;3.60;;
56770;SDS011;42641;59.794;17.616;2023-01-10T15:32:51;5.57;;;3.00;;
56770;SDS011;42641;59.794;17.616;2023-01-10T15:35:24;5.50;;;2.80;;
56770;SDS011;42641;59.794;17.616;2023-01-10T15:37:57;4.43;;;2.73;;
56770;SDS011;42641;59.794;17.616;2023-01-10T15:40:31;4.00;;;2.80;;
56770;SDS011;42641;59.794;17.616;2023-01-10T15:43:10;3.27;;;2.40;;
56770;SDS011;42641;59.794;17.616;2023-01-10T15:45:43;2.50;;;2.20;;
56770;SDS011;42641;59.794;17.616;2023-01-10T15:48:29;4.27;;;2.33;;
56770;SDS011;42641;59.794;17.616;2023-01-10T15:50:57;3.80;;;2.17;;
56770;SDS011;42641;59.794;17.616;2023-01-10T15:53:51;2.50;;;2.00;;
56770;SDS011;42641;59.794;17.616;2023-01-10T15:56:26;3.20;;;2.20;;
56770;SDS011;42641;59.794;17.616;2023-01-10T15:59:04;3.13;;;2.30;;
56770;SDS011;42641;59.794;17.616;2023-01-10T16:02:21;4.37;;;2.20;;
56770;SDS011;42641;59.794;17.616;2023-01-10T16:05:06;3.43;;;1.90;;
56770;SDS011;42641;59.794;17.616;2023-01-10T16:07:40;2.43;;;1.60;;
56770;SDS011;42641;59.794;17.616;2023-01-10T16:12:47;1.70;;;1.60;;
56770;SDS011;42641;59.794;17.616;2023-01-10T16:15:33;1.63;;;1.23;;
56770;SDS011;42641;59.794;17.616;2023-01-10T16:18:00;2.30;;;1.40;;
56770;SDS011;42641;59.794;17.616;2023-01-10T16:20:28;1.60;;;1.30;;
56770;SDS011;42641;59.794;17.616;2023-01-10T16:22:57;1.73;;;1.30;;
56770;SDS011;42641;59.794;17.616;2023-01-10T16:25:27;1.47;;;1.30;;
56770;SDS011;42641;59.794;17.616;2023-01-10T16:27:57;1.30;;;1.17;;
56770;SDS011;42641;59.794;17.616;2023-01-10T16:30:26;3.10;;;1.57;;